Terminal Aerodrome Forecast
Issued by NWS Lake Charles, LA

Home | Current Version | Previous Version | Text Only | Print | Product List | Glossary On
Versions: 1 2 3 4 5 6 7 8 9 10 11 12 13 14 15 16
517
FTUS44 KLCH 280520
TAFLCH
TAF
KLCH 280520Z 2806/2906 VRB05KT P6SM SCT100
     FM281500 12010KT P6SM VCTS SCT030CB BKN050
     FM290200 VRB05KT P6SM BKN100=

USA.gov is the U.S. government's official web portal to all federal, state and local government web resources and services.